weather.gov     
National Weather Service

Terminal Aerodrome Forecast
NWS Homepage
This page is being discontinued on March 12, 2014.
The same data is available at this site. Please update your bookmarks.
Thank you, and we apologize for the inconvenience.
Please send an email to SR-SRH.Webmaster@noaa.gov with any concerns.


Current Version
Previous Version:    01  02  03  04  05  06  07  08  09  10  11  12  13  14  15  16  17  18  19  20  21  22  23  24  25  26  27  28  29  30  
   31  32  33  
[Printable]
605
FTUS43 KDMX 310534
TAFFOD
TAF
KFOD 310534Z 3106/0106 21009KT P6SM SCT250
     FM311500 26006KT P6SM SCT030 OVC150
     FM311800 VRB06KT P6SM SCT025 OVC070
     FM312000 05006KT 5SM -SN SCT025 OVC070
     FM312300 06010KT 1SM -SN OVC015
     FM010300 06013KT 3/4SM -RASN OVC008=




605
FTUS43 KDMX 310534
TAFFOD
TAF
KFOD 310534Z 3106/0106 21009KT P6SM SCT250
     FM311500 26006KT P6SM SCT030 OVC150
     FM311800 VRB06KT P6SM SCT025 OVC070
     FM312000 05006KT 5SM -SN SCT025 OVC070
     FM312300 06010KT 1SM -SN OVC015
     FM010300 06013KT 3/4SM -RASN OVC008=


U.S. Dept. of Commerce
NOAA National Weather Service
1325 East West Highway
Silver Spring, MD 20910
E-mail: w-nws.webmaster@noaa.gov
Page last modified: May 16, 2007
NATIONAL WEATHER SERVICE: for Safety, for Work, for Fun - FOR LIFE